Time;durP1;ratioP1;P1;durP2;ratioP2;P2;SDS_P1;SDS_P2;PMS_P1;PMS_P2;Temp;Humidity;BMP_temperature;BMP_pressure;BME280_temperature;BME280_humidity;BME280_pressure;Samples;Min_cycle;Max_cycle;Signal;HPM_P1;HPM_P2
2023/03/20 00:00:35;;;;;;;8.68;3.50;;;;;;;6.93;100.00;101108.63;5082256;28;20282;-75
2023/03/20 00:03:00;;;;;;;9.95;3.20;;;;;;;6.97;100.00;101105.38;5102345;27;20073;-75
2023/03/20 00:05:27;;;;;;;12.77;3.40;;;;;;;6.96;100.00;101104.53;5085956;27;20140;-76
2023/03/20 00:07:52;;;;;;;7.75;3.00;;;;;;;6.99;100.00;101105.94;5068778;27;20023;-75
2023/03/20 00:10:18;;;;;;;7.85;3.38;;;;;;;7.00;100.00;101104.88;5098027;28;20516;-75
2023/03/20 00:12:45;;;;;;;8.23;2.85;;;;;;;6.98;100.00;101107.88;5084347;27;20027;-76
2023/03/20 00:15:36;;;;;;;6.72;3.20;;;;;;;6.99;100.00;101111.47;5068990;27;20030;-76
2023/03/20 00:18:03;;;;;;;7.13;2.78;;;;;;;6.98;100.00;101107.88;5082879;27;20035;-76
2023/03/20 00:20:28;;;;;;;7.38;2.90;;;;;;;7.03;100.00;101104.34;5081978;28;20027;-75
2023/03/20 00:22:54;;;;;;;8.18;3.42;;;;;;;7.01;100.00;101110.13;5098608;28;20038;-75
2023/03/20 00:25:22;;;;;;;9.95;3.38;;;;;;;7.00;100.00;101102.94;5085526;27;20523;-76
2023/03/20 00:27:47;;;;;;;8.60;3.42;;;;;;;7.03;100.00;101102.41;5084957;27;20059;-76
2023/03/20 00:30:33;;;;;;;8.35;2.90;;;;;;;7.05;100.00;101100.25;5098785;28;20119;-76
2023/03/20 00:32:59;;;;;;;8.15;2.92;;;;;;;7.06;100.00;101095.56;5084735;27;20130;-76
2023/03/20 00:35:29;;;;;;;8.55;3.08;;;;;;;7.05;100.00;101094.72;5099698;27;20050;-76
2023/03/20 00:37:55;;;;;;;8.85;3.00;;;;;;;7.07;100.00;101081.47;5102713;27;20083;-75
2023/03/20 00:40:21;;;;;;;11.73;3.28;;;;;;;7.08;100.00;101077.63;5085116;27;20106;-76
2023/03/20 00:42:50;;;;;;;9.07;3.20;;;;;;;7.09;100.00;101072.94;5069457;28;20028;-76
2023/03/20 00:45:17;;;;;;;11.55;2.83;;;;;;;7.09;100.00;101064.66;5065562;28;20535;-76
2023/03/20 00:47:42;;;;;;;6.88;2.95;;;;;;;7.11;100.00;101071.59;5094889;28;20499;-76
2023/03/20 00:50:22;;;;;;;14.55;3.15;;;;;;;7.10;100.00;101080.13;5064939;28;20050;-75
2023/03/20 00:52:49;;;;;;;10.32;2.88;;;;;;;7.09;100.00;101078.47;5094307;27;20035;-75
2023/03/20 00:55:15;;;;;;;10.13;2.90;;;;;;;7.09;100.00;101076.53;5101418;27;20027;-76
2023/03/20 00:57:47;;;;;;;11.60;3.58;;;;;;;7.09;100.00;101072.94;5100894;27;20114;-76
2023/03/20 01:00:34;;;;;;;10.52;3.45;;;;;;;7.12;100.00;101066.91;5098465;28;20024;-76
2023/03/20 01:03:00;;;;;;;11.23;3.08;;;;;;;7.11;100.00;101077.13;5115656;27;20058;-76
2023/03/20 01:05:26;;;;;;;8.35;2.80;;;;;;;7.10;100.00;101071.84;5095700;27;20027;-75
2023/03/20 01:07:51;;;;;;;6.32;2.60;;;;;;;7.10;100.00;101069.06;5066678;27;20020;-76
2023/03/20 01:10:17;;;;;;;8.65;2.78;;;;;;;7.12;100.00;101072.41;5080076;28;20502;-75
2023/03/20 01:12:43;;;;;;;10.18;2.90;;;;;;;7.12;100.00;101077.94;5081720;27;20027;-76
2023/03/20 01:15:19;;;;;;;8.52;2.50;;;;;;;7.12;100.00;101083.47;5076271;27;20083;-76
2023/03/20 01:17:44;;;;;;;11.85;2.78;;;;;;;7.14;100.00;101078.53;5084233;27;20023;-75
2023/03/20 01:20:18;;;;;;;10.82;3.42;;;;;;;7.14;100.00;101079.34;5064377;28;20023;-75
2023/03/20 01:22:43;;;;;;;8.85;3.20;;;;;;;7.13;100.00;101083.22;5096171;28;20032;-75
2023/03/20 01:25:10;;;;;;;12.25;3.22;;;;;;;7.14;100.00;101086.81;5083553;27;20448;-76
2023/03/20 01:27:35;;;;;;;8.63;2.90;;;;;;;7.15;100.00;101074.66;5084000;27;20027;-76
2023/03/20 01:30:01;;;;;;;13.50;3.30;;;;;;;7.14;100.00;101075.78;5118084;27;20491;-76
2023/03/20 01:32:26;;;;;;;8.50;2.92;;;;;;;7.13;100.00;101063.88;5087264;27;20038;-76
2023/03/20 01:34:53;;;;;;;11.35;3.13;;;;;;;7.16;100.00;101065.31;5097808;28;20460;-75
2023/03/20 01:37:26;;;;;;;12.63;3.22;;;;;;;7.18;100.00;101065.84;5068054;27;20027;-76
2023/03/20 01:39:51;;;;;;;;;;;;;;;7.18;100.00;101060.34;5098397;27;20082;-76
2023/03/20 01:42:17;;;;;;;10.88;2.63;;;;;;;7.19;100.00;101061.16;5125207;27;19911;-75
2023/03/20 01:44:42;;;;;;;10.35;2.92;;;;;;;7.19;100.00;101050.97;5100817;27;20035;-75
2023/03/20 01:47:16;;;;;;;11.90;2.67;;;;;;;7.18;100.00;101054.81;5100563;27;20134;-76
2023/03/20 01:50:21;;;;;;;10.00;2.38;;;;;;;7.19;100.00;101050.97;5083156;27;20033;-76
2023/03/20 01:52:46;;;;;;;8.57;3.20;;;;;;;7.18;100.00;101052.03;5091737;27;20539;-76
2023/03/20 01:55:12;;;;;;;9.80;2.78;;;;;;;7.19;100.00;101047.34;5082889;27;20063;-76
2023/03/20 01:57:37;;;;;;;11.55;2.65;;;;;;;7.22;100.00;101050.44;5090299;28;20034;-76
2023/03/20 02:00:05;;;;;;;13.45;2.80;;;;;;;7.17;100.00;101058.69;5095532;27;20445;-76
2023/03/20 02:02:31;;;;;;;10.20;2.70;;;;;;;7.18;100.00;101049.28;5100799;27;20035;-75
2023/03/20 02:05:00;;;;;;;10.25;2.83;;;;;;;7.18;100.00;101054.81;5063244;28;20092;-76
2023/03/20 02:07:25;;;;;;;10.45;2.47;;;;;;;7.21;100.00;101057.06;5063592;28;20506;-76
2023/03/20 02:09:51;;;;;;;12.20;2.80;;;;;;;7.16;100.00;101052.31;5079663;27;20341;-75
2023/03/20 02:12:16;;;;;;;6.97;2.30;;;;;;;7.17;100.00;101044.88;5099849;27;20401;-76
2023/03/20 02:14:43;;;;;;;8.50;2.80;;;;;;;7.19;100.00;101039.91;5099552;27;20815;-76
2023/03/20 02:17:08;;;;;;;10.27;2.92;;;;;;;7.20;100.00;101032.47;5100563;27;20031;-76
2023/03/20 02:19:58;;;;;;;11.02;2.53;;;;;;;7.18;100.00;101034.66;5079994;28;20030;-75
2023/03/20 02:22:29;;;;;;;7.60;2.38;;;;;;;7.15;100.00;101036.81;5113020;27;20038;-75
2023/03/20 02:25:32;;;;;;;9.05;2.45;;;;;;;7.18;100.00;101038.22;5100261;27;20028;-76
2023/03/20 02:28:00;;;;;;;9.02;2.85;;;;;;;7.17;100.00;101033.81;5098694;27;20023;-75
2023/03/20 02:30:54;;;;;;;9.10;2.67;;;;;;;7.15;100.00;101038.75;5099798;27;20031;-76
2023/03/20 02:34:01;;;;;;;10.20;2.63;;;;;;;7.12;100.00;101033.75;5107663;27;20167;-75
2023/03/20 02:36:47;;;;;;;7.32;2.35;;;;;;;7.14;100.00;101020.53;5054623;28;20029;-76
2023/03/20 02:39:27;;;;;;;8.27;2.70;;;;;;;7.15;100.00;101027.72;5095338;28;20039;-76
2023/03/20 02:41:56;;;;;;;7.35;2.20;;;;;;;7.14;100.00;101031.56;5075325;27;20020;-76
2023/03/20 02:44:27;;;;;;;6.50;2.10;;;;;;;7.12;100.00;101020.78;5116569;28;20095;-75
2023/03/20 02:47:06;;;;;;;9.88;2.78;;;;;;;7.13;100.00;101007.78;5115992;28;20046;-75
2023/03/20 02:49:50;;;;;;;10.15;2.67;;;;;;;7.14;100.00;101012.25;5079497;28;20023;-76
2023/03/20 02:52:37;;;;;;;6.95;2.00;;;;;;;7.14;100.00;101009.47;5070606;28;20023;-76
2023/03/20 02:55:33;;;;;;;8.18;2.45;;;;;;;7.14;100.00;101015.00;5102449;28;20042;-76
2023/03/20 02:58:06;;;;;;;8.48;2.28;;;;;;;7.15;100.00;101011.13;5121214;28;20089;-75
2023/03/20 03:00:35;;;;;;;8.88;2.45;;;;;;;7.13;100.00;101013.31;5096125;28;20031;-76
2023/03/20 03:03:05;;;;;;;11.70;2.80;;;;;;;7.12;100.00;101006.13;5062940;28;20395;-76
2023/03/20 03:05:48;;;;;;;6.22;2.47;;;;;;;7.14;100.00;101003.94;5079656;28;20621;-75
2023/03/20 03:08:13;;;;;;;;;;;;;;;7.14;100.00;101007.53;5099898;28;20039;-75
2023/03/20 03:10:42;;;;;;;8.82;2.20;;;;;;;7.13;100.00;101007.78;5116678;28;19908;-76
2023/03/20 03:13:11;;;;;;;8.30;2.38;;;;;;;7.15;100.00;101000.91;5062807;28;20448;-76
2023/03/20 03:15:38;;;;;;;11.50;2.55;;;;;;;7.13;100.00;100994.84;5082533;28;20015;-76
2023/03/20 03:18:05;;;;;;;10.15;2.75;;;;;;;7.11;100.00;100993.41;5052824;28;20037;-76
2023/03/20 03:20:36;;;;;;;10.30;2.58;;;;;;;7.11;100.00;100993.41;5096408;28;20035;-75
2023/03/20 03:23:01;;;;;;;11.52;4.10;;;;;;;7.11;100.00;100990.66;5062515;28;20628;-75
2023/03/20 03:25:31;;;;;;;11.25;4.00;;;;;;;7.14;100.00;100996.50;5059155;28;20058;-75
2023/03/20 03:28:11;;;;;;;11.05;3.47;;;;;;;7.09;100.00;100995.59;5098088;28;20023;-75
2023/03/20 03:30:37;;;;;;;10.65;3.53;;;;;;;7.09;100.00;100990.06;5098508;28;20028;-75
2023/03/20 03:33:18;;;;;;;7.95;2.97;;;;;;;7.10;100.00;100998.13;5071164;28;20035;-76
2023/03/20 03:35:45;;;;;;;7.90;3.30;;;;;;;7.11;100.00;100999.78;5100343;28;20031;-75
2023/03/20 03:38:16;;;;;;;11.00;4.00;;;;;;;7.11;100.00;101001.72;5099231;28;20034;-76
2023/03/20 03:40:53;;;;;;;9.30;3.17;;;;;;;7.12;100.00;101001.44;5113005;28;20043;-75
2023/03/20 03:43:34;;;;;;;13.48;2.83;;;;;;;7.10;100.00;101000.03;5095296;28;20032;-76
2023/03/20 03:46:32;;;;;;;9.93;3.10;;;;;;;7.09;100.00;100990.91;5098393;28;20035;-76
2023/03/20 03:48:58;;;;;;;11.65;3.05;;;;;;;7.07;100.00;100981.22;5082259;28;20051;-75
2023/03/20 03:51:25;;;;;;;9.57;2.78;;;;;;;7.11;100.00;100987.91;5055535;28;20024;-75
2023/03/20 03:53:59;;;;;;;11.85;2.78;;;;;;;7.10;100.00;100991.72;5061206;28;20555;-76
2023/03/20 03:56:25;;;;;;;6.03;2.65;;;;;;;7.08;100.00;100985.66;5065205;28;20031;-76
2023/03/20 03:58:52;;;;;;;7.05;2.65;;;;;;;7.06;100.00;100985.06;5099913;28;20480;-75
2023/03/20 04:01:17;;;;;;;11.73;3.45;;;;;;;7.07;100.00;100995.00;5081251;28;20034;-75
2023/03/20 04:03:51;;;;;;;10.35;2.60;;;;;;;7.07;100.00;100997.78;5062591;28;20024;-76
2023/03/20 04:06:17;;;;;;;8.13;3.00;;;;;;;7.06;100.00;100993.34;5062120;28;20032;-76
2023/03/20 04:08:42;;;;;;;7.57;2.72;;;;;;;7.03;100.00;100994.72;5049076;28;20023;-76
2023/03/20 04:11:29;;;;;;;11.13;3.15;;;;;;;7.06;100.00;100994.19;5058293;28;20027;-76
2023/03/20 04:13:54;;;;;;;8.05;2.45;;;;;;;7.07;100.00;100987.56;5074325;28;20024;-76
2023/03/20 04:16:21;;;;;;;5.95;2.35;;;;;;;7.05;100.00;100991.66;5048742;28;20598;-75
2023/03/20 04:18:46;;;;;;;12.07;2.90;;;;;;;7.05;100.00;100994.44;5045749;28;20106;-76
2023/03/20 04:21:12;;;;;;;4.60;1.92;;;;;;;7.07;100.00;100986.72;5064484;28;20036;-75
2023/03/20 04:23:37;;;;;;;9.27;2.72;;;;;;;7.04;100.00;100988.09;5049153;28;20072;-76
2023/03/20 04:26:03;;;;;;;12.27;3.08;;;;;;;7.04;100.00;100982.56;5081924;28;20458;-76
2023/03/20 04:28:29;;;;;;;9.65;2.97;;;;;;;7.05;100.00;100988.91;5065062;28;20023;-76
2023/03/20 04:30:55;;;;;;;9.38;2.70;;;;;;;7.06;100.00;100990.59;5066216;28;20033;-76
2023/03/20 04:33:21;;;;;;;13.63;3.45;;;;;;;7.04;100.00;100977.03;5099344;28;20038;-76
2023/03/20 04:35:47;;;;;;;6.75;2.67;;;;;;;7.07;100.00;100986.72;5081738;28;20384;-76
2023/03/20 04:38:12;;;;;;;7.18;2.60;;;;;;;7.05;100.00;100984.25;5078006;28;20032;-76
2023/03/20 04:40:38;;;;;;;8.80;2.70;;;;;;;7.04;100.00;100976.19;5079418;28;20100;-76
2023/03/20 04:43:03;;;;;;;8.82;2.90;;;;;;;7.05;100.00;100978.72;5064644;28;20085;-76
2023/03/20 04:45:29;;;;;;;9.13;2.70;;;;;;;7.07;100.00;100976.50;5064765;28;20067;-76
2023/03/20 04:47:54;;;;;;;8.02;2.22;;;;;;;7.05;100.00;100977.84;5070564;28;20626;-76
2023/03/20 04:50:20;;;;;;;9.55;2.30;;;;;;;7.03;100.00;100978.13;5072826;28;20127;-75
2023/03/20 04:52:45;;;;;;;8.30;2.78;;;;;;;7.05;100.00;100984.25;5077841;28;20095;-76
2023/03/20 04:55:11;;;;;;;9.00;3.03;;;;;;;7.03;100.00;100980.91;5092934;28;20218;-75
2023/03/20 04:57:36;;;;;;;6.28;2.58;;;;;;;7.05;100.00;100978.72;5062257;28;20034;-76
2023/03/20 05:00:03;;;;;;;11.38;2.55;;;;;;;7.05;100.00;100978.72;5096187;28;20054;-75
2023/03/20 05:02:29;;;;;;;10.20;2.60;;;;;;;7.04;100.00;100974.28;5065024;28;20030;-76
2023/03/20 05:04:54;;;;;;;8.38;2.70;;;;;;;7.03;100.00;100983.66;5047691;28;20020;-76
2023/03/20 05:07:20;;;;;;;10.40;3.53;;;;;;;7.03;100.00;100969.03;5047694;28;20076;-76
2023/03/20 05:09:46;;;;;;;10.00;3.00;;;;;;;7.06;100.00;100977.63;5060972;28;20056;-76
2023/03/20 05:12:11;;;;;;;9.38;2.75;;;;;;;7.05;100.00;100980.63;5064321;28;20040;-76
2023/03/20 05:14:37;;;;;;;10.10;2.70;;;;;;;7.04;100.00;100979.78;5080910;28;20512;-76
2023/03/20 05:17:02;;;;;;;7.25;2.58;;;;;;;7.03;100.00;100977.31;5081339;28;20031;-76
2023/03/20 05:19:28;;;;;;;9.48;2.50;;;;;;;7.04;100.00;100978.97;5064546;28;20031;-75
2023/03/20 05:21:53;;;;;;;7.53;3.00;;;;;;;7.06;100.00;100974.03;5060697;28;20032;-76
2023/03/20 05:24:19;;;;;;;14.25;3.28;;;;;;;7.08;100.00;100972.69;5078431;28;20016;-76
2023/03/20 05:26:45;;;;;;;7.35;2.92;;;;;;;7.09;100.00;100971.56;5073097;28;20469;-76
2023/03/20 05:29:10;;;;;;;7.47;2.70;;;;;;;7.06;100.00;100979.56;5097450;28;20023;-76
2023/03/20 05:31:36;;;;;;;8.57;3.13;;;;;;;7.06;100.00;100976.78;5064177;28;20023;-76
2023/03/20 05:34:01;;;;;;;6.72;2.67;;;;;;;7.07;100.00;100975.69;5097651;28;20027;-76
2023/03/20 05:36:27;;;;;;;10.88;3.42;;;;;;;7.05;100.00;100975.09;5069817;28;20023;-75
2023/03/20 05:38:52;;;;;;;7.13;2.50;;;;;;;7.05;100.00;100973.19;5084050;28;20072;-76
2023/03/20 05:41:18;;;;;;;8.00;2.80;;;;;;;7.07;100.00;100976.50;5068558;27;20072;-75
2023/03/20 05:43:43;;;;;;;10.55;2.70;;;;;;;7.04;100.00;100982.56;5083499;28;20085;-76
2023/03/20 05:46:09;;;;;;;7.20;2.85;;;;;;;7.07;100.00;100982.03;5077066;28;20039;-76
2023/03/20 05:48:35;;;;;;;8.10;2.70;;;;;;;7.06;100.00;100980.38;5078858;28;20155;-76
2023/03/20 05:51:01;;;;;;;8.18;2.92;;;;;;;7.05;100.00;100984.25;5064393;28;20369;-76
2023/03/20 05:53:26;;;;;;;10.48;2.92;;;;;;;7.10;100.00;100987.06;5085685;28;20072;-75
2023/03/20 05:55:52;;;;;;;7.80;3.22;;;;;;;7.06;100.00;100983.13;5063161;28;20076;-76
2023/03/20 05:58:17;;;;;;;9.98;2.90;;;;;;;7.06;100.00;100987.84;5061512;28;20511;-76
2023/03/20 06:00:43;;;;;;;9.70;2.55;;;;;;;7.07;100.00;100983.97;5050522;28;20024;-76
2023/03/20 06:03:08;;;;;;;10.93;3.20;;;;;;;7.09;100.00;100990.91;5060589;28;20076;-75
2023/03/20 06:05:34;;;;;;;12.63;3.35;;;;;;;7.08;100.00;100982.91;5080481;28;20043;-76
2023/03/20 06:07:59;;;;;;;9.10;3.45;;;;;;;7.06;100.00;100974.84;5087606;28;20016;-76
2023/03/20 06:10:26;;;;;;;10.27;3.40;;;;;;;7.07;100.00;100975.69;5060136;28;20103;-76
2023/03/20 06:12:52;;;;;;;11.50;3.08;;;;;;;7.06;100.00;100974.03;5060884;28;20667;-76
2023/03/20 06:15:17;;;;;;;12.82;3.17;;;;;;;7.08;100.00;100971.84;5051193;28;20024;-76
2023/03/20 06:17:43;;;;;;;10.65;3.28;;;;;;;7.10;100.00;100980.69;5063204;28;20477;-76
2023/03/20 06:20:09;;;;;;;10.65;2.90;;;;;;;7.08;100.00;100985.66;5053985;28;20039;-76
2023/03/20 06:22:34;;;;;;;7.55;2.97;;;;;;;7.06;100.00;100985.91;5080046;28;20055;-75
2023/03/20 06:25:00;;;;;;;10.38;3.25;;;;;;;7.07;100.00;100983.97;5067521;28;20024;-76
2023/03/20 06:27:26;;;;;;;9.30;3.28;;;;;;;7.09;100.00;100987.31;5073380;28;20032;-75
2023/03/20 06:29:51;;;;;;;4.72;2.33;;;;;;;7.09;100.00;100984.56;5046664;28;20145;-76
2023/03/20 06:32:17;;;;;;;9.60;3.17;;;;;;;7.09;100.00;101001.94;5061418;28;20511;-75
2023/03/20 06:34:42;;;;;;;11.25;3.38;;;;;;;7.08;100.00;100992.00;5048345;28;20027;-76
2023/03/20 06:37:08;;;;;;;12.18;3.15;;;;;;;7.10;100.00;101000.03;5042144;28;20097;-76
2023/03/20 06:39:33;;;;;;;8.13;2.95;;;;;;;7.09;100.00;100999.19;5063587;28;20030;-76
2023/03/20 06:41:59;;;;;;;10.60;2.75;;;;;;;7.11;100.00;101005.31;5061700;28;20047;-76
2023/03/20 06:44:25;;;;;;;12.55;3.28;;;;;;;7.12;100.00;101004.19;5048581;28;20499;-76
2023/03/20 06:46:51;;;;;;;8.45;2.53;;;;;;;7.16;100.00;101007.28;5043613;28;20031;-76
2023/03/20 06:49:16;;;;;;;11.77;3.50;;;;;;;7.17;100.00;101008.94;5059782;28;20165;-75
2023/03/20 06:51:42;;;;;;;10.07;3.08;;;;;;;7.19;100.00;101015.06;5075156;28;20392;-76
2023/03/20 06:54:07;;;;;;;10.93;3.03;;;;;;;7.18;100.00;101010.59;5059358;28;20032;-76
2023/03/20 06:56:33;;;;;;;9.25;2.92;;;;;;;7.22;100.00;101010.94;5039696;28;20032;-75
2023/03/20 06:58:58;;;;;;;9.18;2.75;;;;;;;7.23;100.00;101018.97;5035773;28;20028;-76
2023/03/20 07:01:24;;;;;;;8.00;3.10;;;;;;;7.26;100.00;101021.19;5045801;28;20024;-75
2023/03/20 07:03:50;;;;;;;8.93;3.10;;;;;;;7.27;100.00;101022.88;5088933;28;20049;-76
2023/03/20 07:06:17;;;;;;;11.48;3.22;;;;;;;7.31;100.00;101014.91;5049559;28;20696;-76
2023/03/20 07:08:42;;;;;;;12.27;3.13;;;;;;;7.34;100.00;101017.97;5059584;28;20032;-76
2023/03/20 07:11:08;;;;;;;12.80;3.10;;;;;;;7.40;100.00;101016.09;5075177;28;20035;-76
2023/03/20 07:13:34;;;;;;;11.75;3.33;;;;;;;7.42;100.00;101008.38;5042909;28;20476;-76
2023/03/20 07:16:00;;;;;;;8.15;2.95;;;;;;;7.46;100.00;101012.28;5058828;28;20031;-76
2023/03/20 07:18:25;;;;;;;9.90;2.97;;;;;;;7.52;100.00;101013.16;5059431;28;20024;-76
2023/03/20 07:20:52;;;;;;;13.80;2.78;;;;;;;7.55;100.00;101009.88;5042531;28;20027;-75
2023/03/20 07:23:17;;;;;;;11.18;3.35;;;;;;;7.60;100.00;101002.50;5078668;28;20107;-76
2023/03/20 07:25:43;;;;;;;13.05;3.78;;;;;;;7.66;100.00;101006.13;5067168;27;20060;-76
2023/03/20 07:28:09;;;;;;;13.45;3.67;;;;;;;7.70;100.00;101011.97;5073236;28;20039;-76
2023/03/20 07:30:34;;;;;;;13.75;3.90;;;;;;;7.76;100.00;101008.16;5051919;27;20024;-76
2023/03/20 07:33:00;;;;;;;10.15;3.03;;;;;;;7.79;100.00;101008.44;5051980;28;20528;-76
2023/03/20 07:35:25;;;;;;;18.00;3.83;;;;;;;7.84;100.00;101011.25;5075952;28;20024;-76
2023/03/20 07:37:51;;;;;;;13.80;3.03;;;;;;;7.88;100.00;101017.09;5046643;28;20051;-76
2023/03/20 07:40:17;;;;;;;13.38;3.15;;;;;;;7.94;100.00;101017.97;5060845;28;20020;-76
2023/03/20 07:42:43;;;;;;;21.98;3.78;;;;;;;7.96;100.00;101016.59;5063179;28;20059;-76
2023/03/20 07:45:09;;;;;;;11.80;2.70;;;;;;;8.00;100.00;101012.22;5060048;28;20374;-76
2023/03/20 07:47:35;;;;;;;10.07;3.42;;;;;;;8.06;100.00;101022.22;5056216;28;20051;-76
2023/03/20 07:50:00;;;;;;;14.00;3.65;;;;;;;8.12;100.00;101013.97;5098437;28;20032;-76
2023/03/20 07:52:26;;;;;;;13.43;3.03;;;;;;;8.17;100.00;101028.69;5084528;28;20051;-76
2023/03/20 07:54:51;;;;;;;17.70;3.88;;;;;;;8.21;100.00;101018.72;5082814;28;20116;-76
2023/03/20 07:57:17;;;;;;;15.93;3.47;;;;;;;8.23;100.00;101005.47;5064931;28;20027;-76
2023/03/20 07:59:43;;;;;;;13.23;3.40;;;;;;;8.30;100.00;101019.06;5083175;28;20081;-76
2023/03/20 08:02:15;;;;;;;20.42;3.75;;;;;;;8.41;100.00;101023.63;5066034;28;20030;-76
2023/03/20 08:04:41;;;;;;;10.20;3.13;;;;;;;8.48;100.00;101024.22;5081141;28;20024;-76
2023/03/20 08:07:07;;;;;;;16.52;3.17;;;;;;;8.56;100.00;101024.81;5082722;28;20113;-76
2023/03/20 08:09:32;;;;;;;10.13;2.92;;;;;;;8.66;100.00;101020.16;5099526;28;20039;-76
2023/03/20 08:11:58;;;;;;;11.85;3.33;;;;;;;8.73;100.00;101026.28;5083011;28;20039;-76
2023/03/20 08:14:23;;;;;;;10.63;2.78;;;;;;;8.85;100.00;101028.00;5078576;28;20034;-76
2023/03/20 08:16:49;;;;;;;12.18;2.75;;;;;;;8.94;100.00;101018.06;5083413;28;20035;-76
2023/03/20 08:19:14;;;;;;;11.57;2.80;;;;;;;9.07;100.00;101031.41;5077625;28;20475;-76
2023/03/20 08:21:40;;;;;;;18.00;3.72;;;;;;;9.23;100.00;101028.72;5052207;28;20032;-76
2023/03/20 08:24:06;;;;;;;13.27;3.03;;;;;;;9.37;100.00;101029.84;5086440;28;20035;-77
2023/03/20 08:26:32;;;;;;;12.27;3.20;;;;;;;9.52;100.00;101037.38;5083243;28;20392;-77
2023/03/20 08:28:58;;;;;;;11.40;2.78;;;;;;;9.68;100.00;101041.00;5081634;28;20035;-77
2023/03/20 08:31:23;;;;;;;13.18;2.78;;;;;;;9.88;100.00;101041.03;5099435;28;20028;-77
2023/03/20 08:33:49;;;;;;;17.10;3.60;;;;;;;10.02;100.00;101044.91;5065340;28;20020;-76
2023/03/20 08:36:15;;;;;;;13.48;3.05;;;;;;;10.17;100.00;101046.00;5082726;28;20020;-77
2023/03/20 08:38:41;;;;;;;11.38;2.17;;;;;;;10.31;100.00;101047.16;5096835;28;20106;-77
2023/03/20 08:41:07;;;;;;;15.88;3.20;;;;;;;10.45;100.00;101050.19;5083474;27;20023;-77
2023/03/20 08:43:32;;;;;;;15.27;2.88;;;;;;;10.56;100.00;101040.75;5064000;28;20176;-77
2023/03/20 08:45:58;;;;;;;19.23;2.88;;;;;;;10.70;100.00;101040.97;5090134;28;20564;-77
2023/03/20 08:48:24;;;;;;;16.42;3.30;;;;;;;10.83;100.00;101033.97;5097828;28;20044;-77
2023/03/20 08:50:50;;;;;;;10.80;2.88;;;;;;;10.95;100.00;101038.13;5083002;28;20027;-77
2023/03/20 08:53:15;;;;;;;16.40;3.20;;;;;;;11.09;100.00;101043.91;5090584;28;20027;-77
2023/03/20 08:55:46;;;;;;;14.00;3.17;;;;;;;11.22;100.00;101036.88;5079093;28;20039;-77
2023/03/20 08:58:12;;;;;;;13.88;2.78;;;;;;;11.38;100.00;101035.69;5062599;28;20104;-77
2023/03/20 09:00:37;;;;;;;16.50;3.13;;;;;;;11.51;100.00;101039.78;5065646;28;20053;-77
2023/03/20 09:03:03;;;;;;;16.17;2.97;;;;;;;11.61;100.00;101044.44;5082276;28;20035;-77
2023/03/20 09:05:28;;;;;;;20.70;3.53;;;;;;;11.75;100.00;101034.31;5065283;28;20526;-77
2023/03/20 09:07:54;;;;;;;16.52;3.10;;;;;;;11.85;100.00;101034.28;5070987;28;20031;-77
2023/03/20 09:10:19;;;;;;;21.15;3.13;;;;;;;11.97;100.00;101030.31;5077426;28;20032;-77
2023/03/20 09:12:45;;;;;;;23.05;3.42;;;;;;;12.08;100.00;101031.88;5043520;28;20028;-77
2023/03/20 09:15:11;;;;;;;19.48;2.80;;;;;;;12.18;100.00;101034.59;5054993;27;20023;-77
2023/03/20 09:17:36;;;;;;;15.55;3.30;;;;;;;12.30;100.00;101039.75;5068957;28;20103;-77
2023/03/20 09:20:02;;;;;;;16.55;3.08;;;;;;;12.41;100.00;101032.13;5056681;28;20113;-77
2023/03/20 09:22:27;;;;;;;21.98;3.45;;;;;;;12.52;100.00;101039.28;5083532;28;20039;-77
2023/03/20 09:24:53;;;;;;;14.23;3.05;;;;;;;12.60;100.00;101032.22;5080824;28;20027;-77
2023/03/20 09:27:18;;;;;;;12.98;2.80;;;;;;;12.67;100.00;101027.13;5047972;28;20589;-78
2023/03/20 09:29:43;;;;;;;20.55;3.35;;;;;;;12.78;100.00;101028.66;5085065;28;20032;-77
2023/03/20 09:32:12;;;;;;;18.55;3.35;;;;;;;12.87;100.00;101023.28;5058808;28;20023;-78
2023/03/20 09:34:38;;;;;;;16.65;3.25;;;;;;;12.94;100.00;101026.53;5048459;28;20092;-78
2023/03/20 09:37:03;;;;;;;14.52;3.03;;;;;;;13.02;100.00;101017.53;5059734;28;20016;-78
2023/03/20 09:39:29;;;;;;;16.75;3.75;;;;;;;13.12;100.00;101027.69;5044869;28;20081;-77
2023/03/20 09:41:54;;;;;;;16.27;3.05;;;;;;;13.17;100.00;101022.06;5060402;28;20022;-78
2023/03/20 09:44:48;;;;;;;16.55;3.25;;;;;;;13.27;100.00;101026.72;5097763;28;20056;-77
2023/03/20 09:47:13;;;;;;;;;;;;;;;13.38;100.00;101019.88;5123688;27;20047;-77
2023/03/20 09:49:41;;;;;;;14.15;3.03;;;;;;;13.44;100.00;101023.41;5101488;27;19907;-77
2023/03/20 09:52:26;;;;;;;18.20;2.95;;;;;;;13.51;100.00;101015.47;5100906;27;20063;-78
2023/03/20 09:55:03;;;;;;;17.90;3.47;;;;;;;13.57;100.00;101023.50;5118730;27;20439;-77
2023/03/20 09:57:36;;;;;;;15.60;2.50;;;;;;;13.68;100.00;101026.09;5067616;27;20119;-78
2023/03/20 10:00:15;;;;;;;15.77;2.70;;;;;;;13.71;100.00;101023.56;5081943;28;20036;-78
2023/03/20 10:02:51;;;;;;;13.80;2.28;;;;;;;13.80;100.00;101027.31;5085996;27;20027;-78
2023/03/20 10:05:36;;;;;;;15.65;2.75;;;;;;;13.88;100.00;101011.84;5079995;27;20104;-78
2023/03/20 10:08:03;;;;;;;12.75;2.45;;;;;;;13.96;100.00;101008.38;5096698;28;20034;-78
2023/03/20 10:10:36;;;;;;;16.52;2.63;;;;;;;14.06;100.00;101019.34;5063523;28;20176;-78
2023/03/20 10:13:09;;;;;;;17.95;2.80;;;;;;;14.16;100.00;101018.34;5097194;28;20024;-78
2023/03/20 10:15:44;;;;;;;;;;;;;;;14.26;100.00;101022.91;5095453;27;20033;-78
2023/03/20 10:18:25;;;;;;;16.02;2.67;;;;;;;14.35;100.00;101021.09;5091419;27;19918;-77
2023/03/20 10:20:55;;;;;;;13.30;2.80;;;;;;;14.45;100.00;101012.50;5083477;27;20039;-77
2023/03/20 10:23:30;;;;;;;13.02;3.17;;;;;;;14.51;100.00;101008.50;5080456;28;20384;-77
2023/03/20 10:25:59;;;;;;;14.82;2.17;;;;;;;14.57;100.00;101006.47;5133907;27;20483;-77
2023/03/20 10:28:57;;;;;;;14.52;2.17;;;;;;;14.69;100.00;101011.56;5067170;27;20027;-77
2023/03/20 10:31:31;;;;;;;22.92;3.25;;;;;;;14.78;100.00;101008.88;5097461;28;20019;-77
2023/03/20 10:34:03;;;;;;;11.70;2.40;;;;;;;14.88;100.00;101022.66;5113110;27;20046;-77
2023/03/20 10:37:04;;;;;;;14.57;2.13;;;;;;;15.02;100.00;101008.66;5100950;28;20029;-77
2023/03/20 10:39:33;;;;;;;11.73;2.60;;;;;;;15.14;100.00;101008.94;5072231;28;20032;-78
2023/03/20 10:42:01;;;;;;;12.00;2.90;;;;;;;15.22;100.00;101002.63;5130931;27;20027;-78
2023/03/20 10:44:36;;;;;;;13.23;2.53;;;;;;;15.33;100.00;101006.84;5063454;28;20035;-79
2023/03/20 10:47:02;;;;;;;15.85;2.88;;;;;;;15.46;100.00;101005.16;5077460;28;20092;-77
2023/03/20 10:49:40;;;;;;;12.50;2.67;;;;;;;15.59;100.00;101003.44;5076915;28;20025;-79
2023/03/20 10:52:10;;;;;;;18.50;2.72;;;;;;;15.71;100.00;101005.72;5078260;28;20069;-79
2023/03/20 10:54:41;;;;;;;13.88;2.65;;;;;;;15.82;100.00;100996.78;5067611;28;20050;-79
2023/03/20 10:57:12;;;;;;;11.75;2.35;;;;;;;15.95;100.00;101006.25;5086138;27;20491;-79
2023/03/20 10:59:43;;;;;;;13.25;2.55;;;;;;;16.07;100.00;100992.50;5104739;27;20191;-79
2023/03/20 11:02:12;;;;;;;17.13;2.47;;;;;;;16.23;100.00;100998.53;5087582;27;20031;-79
2023/03/20 11:04:37;;;;;;;12.48;2.28;;;;;;;16.40;100.00;100994.16;5101467;27;20031;-79
2023/03/20 11:07:27;;;;;;;10.45;2.03;;;;;;;16.53;100.00;100993.25;5086391;27;20031;-79
2023/03/20 11:10:12;;;;;;;14.07;2.80;;;;;;;16.71;100.00;100978.13;5104405;27;20103;-79
2023/03/20 11:12:42;;;;;;;12.70;2.10;;;;;;;16.85;100.00;100974.44;5080426;27;20053;-79
2023/03/20 11:15:28;;;;;;;12.85;2.40;;;;;;;16.98;100.00;100970.69;5079768;28;20459;-79
2023/03/20 11:17:58;;;;;;;14.32;2.33;;;;;;;17.09;100.00;100969.22;5101870;27;20023;-79
2023/03/20 11:20:24;;;;;;;14.23;2.70;;;;;;;17.16;100.00;100961.16;5089671;27;20031;-79
2023/03/20 11:22:50;;;;;;;14.20;2.30;;;;;;;17.22;100.00;100955.34;5086223;28;20028;-79
2023/03/20 11:25:43;;;;;;;14.93;2.30;;;;;;;17.26;100.00;100960.00;5076901;27;20023;-79
2023/03/20 11:28:18;;;;;;;13.23;2.30;;;;;;;17.31;100.00;100959.03;5087700;27;20035;-79